16 augustus 2022

Tijd Code Weer Temp. Zicht Plafond Wind METAR/SPECI
5:00 a.m.
V
54 °F 9 mi - Var 000° 0 kt METAR CZVL 161100Z AUTO 00000KT 9SM CLR 12/10 A2999 RMK SLP155 DENSITY ALT 2400FT
4:00 a.m.
V
59 °F 9 mi - 190° 190° 5 kt METAR CZVL 161000Z AUTO 19005KT 9SM CLR 15/12 A2999 RMK SLP153 DENSITY ALT 2800FT
3:00 a.m.
V
57 °F 9 mi - Var Var 2 kt METAR CZVL 160900Z AUTO VRB02KT 9SM CLR 14/12 A2999 RMK SLP154 DENSITY ALT 2600FT
2:00 a.m.
V
59 °F 9 mi - 180° 180° 4 kt METAR CZVL 160800Z AUTO 18004KT 9SM CLR 15/13 A2999 RMK SLP153 DENSITY ALT 2800FT
1:00 a.m.
V
59 °F 9 mi - 130° 130° 2 kt METAR CZVL 160700Z AUTO 13002KT 9SM CLR 15/12 A2999 RMK SLP152 DENSITY ALT 2800FT
12:00 a.m.
V
63 °F 9 mi 18.000 ft Var 000° 0 kt METAR CZVL 160600Z AUTO 00000KT 9SM BKN180 17/13 A2999 RMK SLP151 DENSITY ALT 3000FT

15 augustus 2022

Tijd Code Weer Temp. Zicht Plafond Wind METAR/SPECI
11:00 p.m.
V
64 °F 9 mi 19.000 ft 150° 150° 2 kt METAR CZVL 160500Z AUTO 15002KT 9SM OVC190 18/13 A2999 RMK SLP152 DENSITY ALT 3100FT
10:00 p.m.
V
63 °F 9 mi - 180° 180° 3 kt METAR CZVL 160400Z AUTO 18003KT 9SM FEW190 17/13 A2999 RMK SLP157 DENSITY ALT 3000FT
9:00 p.m.
V
68 °F 9 mi - 180° 180° 2 kt METAR CZVL 160300Z AUTO 18002KT 9SM CLR 20/15 A2999 RMK SLP155 DENSITY ALT 3300FT
8:00 p.m.
V
77 °F 9 mi - 330° 330° 3 kt METAR CZVL 160200Z AUTO 33003KT 9SM CLR 25/12 A2999 RMK SLP153 DENSITY ALT 3900FT
7:00 p.m.
V
79 °F 9 mi - 340° 340° 5 kt METAR CZVL 160100Z AUTO 34005KT 9SM CLR 26/11 A2999 RMK SLP156 DENSITY ALT 4000FT
6:00 p.m.
V
81 °F 9 mi - 300° 300° 4 kt METAR CZVL 160000Z AUTO 30004KT 9SM CLR 27/10 A2999 RMK SLP157 DENSITY ALT 4100FT
5:00 p.m.
V
79 °F 9 mi - 260° 260° 4 kt METAR CZVL 152300Z AUTO 26004KT 220V020 9SM CLR 26/09 A3000 RMK SLP159 DENSITY ALT 4000FT
4:00 p.m.
V
79 °F 9 mi - 280° 280° 6 kt METAR CZVL 152200Z AUTO 28006KT 240V310 9SM CLR 26/09 A3000 RMK SLP161 DENSITY ALT 4000FT
3:00 p.m.
V
82 °F 9 mi - 280° 280° 6 kt METAR CZVL 152100Z AUTO 28006KT 200V320 9SM CLR 28/10 A3001 RMK SLP160 DENSITY ALT 4100FT
2:00 p.m.
V
79 °F 9 mi - Var Var 2 kt METAR CZVL 152000Z AUTO VRB02KT 9SM CLR 26/10 A3002 RMK SLP162 DENSITY ALT 4000FT
1:00 p.m.
V
77 °F 9 mi - Var Var 3 kt METAR CZVL 151900Z AUTO VRB03KT 9SM CLR 25/10 A3003 RMK SLP167 DENSITY ALT 3900FT
12:00 p.m.
V
77 °F 9 mi - 170° 170° 4 kt METAR CZVL 151800Z AUTO 17004KT 100V220 9SM CLR 25/12 A3003 RMK SLP170 DENSITY ALT 3900FT
11:00 a.m.
V
73 °F 9 mi - 180° 180° 4 kt METAR CZVL 151700Z AUTO 18004KT 120V190 9SM CLR 23/13 A3004 RMK SLP170 DENSITY ALT 3600FT
10:00 a.m.
V
70 °F 9 mi - 180° 180° 6 kt METAR CZVL 151600Z AUTO 18006KT 9SM FEW100 21/13 A3004 RMK SLP174 DENSITY ALT 3400FT
9:00 a.m.
V
66 °F 9 mi - Var Var 2 kt METAR CZVL 151500Z AUTO VRB02KT 9SM CLR 19/15 A3004 RMK SLP175 DENSITY ALT 3100FT
8:00 a.m.
V
57 °F 9 mi - Var 000° 0 kt METAR CZVL 151400Z AUTO 00000KT 9SM CLR 14/13 A3004 RMK SLP174 DENSITY ALT 2600FT
7:00 a.m.
V
52 °F 9 mi - 040° 040° 3 kt METAR CZVL 151300Z AUTO 04003KT 340V150 9SM CLR 11/11 A3004 RMK SLP175 DENSITY ALT 2300FT
6:00 a.m.
V
50 °F 9 mi - Var Var 2 kt METAR CZVL 151200Z AUTO VRB02KT 9SM SCT100 10/10 A3004 RMK SLP177
5:00 a.m.
V
52 °F 9 mi - Var Var 2 kt METAR CZVL 151100Z AUTO VRB02KT 9SM CLR 11/10 A3004 RMK SLP175
4:00 a.m.
V
54 °F 9 mi - Var Var 2 kt METAR CZVL 151000Z AUTO VRB02KT 9SM CLR 12/11 A3003 RMK SLP172 DENSITY ALT 2300FT
3:00 a.m.
V
59 °F 9 mi - Var Var 2 kt METAR CZVL 150900Z AUTO VRB02KT 9SM CLR 15/11 A3002 RMK SLP166 DENSITY ALT 2700FT
2:00 a.m.
V
61 °F 9 mi - Var Var 2 kt METAR CZVL 150800Z AUTO VRB02KT 9SM CLR 16/12 A3003 RMK SLP167 DENSITY ALT 2800FT
1:00 a.m.
V
59 °F 9 mi - Var 000° 0 kt METAR CZVL 150700Z AUTO 00000KT 9SM CLR 15/12 A3002 RMK SLP167 DENSITY ALT 2700FT
12:00 a.m.
V
57 °F 9 mi - Var Var 2 kt METAR CZVL 150600Z AUTO VRB02KT 9SM SCT190 14/11 A3001 RMK SLP166 DENSITY ALT 2500FT

14 augustus 2022

Tijd Code Weer Temp. Zicht Plafond Wind METAR/SPECI
11:05 p.m.
V
59 °F 7 mi - 200° 200° 2 kt METAR CZVL 150505Z AUTO 20002KT 7SM CLR 15/11 A3000 RMK SLP167 DENSITY ALT 2800FT
11:00 p.m.
V
63 °F 5 mi - 200° 200° 4 kt METAR CZVL 150500Z AUTO 20004KT 5SM HZ CLR 17/12 A3000 RMK SLP161 DENSITY ALT 2900FT
10:57 p.m.
V
63 °F 5 mi - 200° 200° 4 kt METAR CZVL 150457Z AUTO 20004KT 5SM HZ CLR 17/12 A3000 RMK SLP165 DENSITY ALT 2900FT
10:00 p.m.
V
59 °F 9 mi - 160° 160° 3 kt METAR CZVL 150400Z AUTO 16003KT 9SM CLR 15/11 A3000 RMK SLP162 DENSITY ALT 2800FT
9:00 p.m.
V
63 °F 9 mi - 160° 160° 3 kt METAR CZVL 150300Z AUTO 16003KT 9SM CLR 17/13 A2999 RMK SLP160 DENSITY ALT 3000FT
8:00 p.m.
V
73 °F 9 mi - 130° 130° 2 kt METAR CZVL 150200Z AUTO 13002KT 9SM CLR 23/08 A2999 RMK SLP158 DENSITY ALT 3700FT
7:00 p.m.
V
73 °F 9 mi - Var 000° 0 kt METAR CZVL 150100Z AUTO 00000KT 9SM CLR 23/10 A3000 RMK SLP159 DENSITY ALT 3700FT
6:00 p.m.
V
75 °F 9 mi - 290° 290° 3 kt METAR CZVL 150000Z AUTO 29003KT 260V330 9SM CLR 24/09 A3000 RMK SLP161 DENSITY ALT 3800FT
5:00 p.m.
V
75 °F 9 mi - 300° 300° 4 kt METAR CZVL 142300Z AUTO 30004KT 260V330 9SM CLR 24/09 A3000 RMK SLP160 DENSITY ALT 3800FT
4:00 p.m.
V
77 °F 9 mi - 270° 270° 5 kt METAR CZVL 142200Z AUTO 27005KT 220V320 9SM CLR 25/10 A3000 RMK SLP160 DENSITY ALT 3800FT
3:00 p.m.
V
75 °F 9 mi - 300° 300° 11 - 18 kt METAR CZVL 142100Z AUTO 30011G18KT 210V340 9SM CLR 24/09 A3000 RMK SLP161 DENSITY ALT 3800FT
2:00 p.m.
V
75 °F 9 mi - 290° 290° 13 - 18 kt METAR CZVL 142000Z AUTO 29013G18KT 240V330 9SM CLR 24/08 A3000 RMK SLP157 DENSITY ALT 3700FT
1:00 p.m.
V
73 °F 9 mi - 280° 280° 4 kt METAR CZVL 141900Z AUTO 28004KT 250V320 9SM CLR 23/10 A3000 RMK SLP156 DENSITY ALT 3600FT
12:00 p.m.
V
73 °F 9 mi - 330° 330° 11 - 19 kt METAR CZVL 141800Z AUTO 33011G19KT 9SM CLR 23/09 A3000 RMK SLP157 DENSITY ALT 3600FT
11:00 a.m.
V
70 °F 9 mi - 310° 310° 12 - 18 kt METAR CZVL 141700Z AUTO 31012G18KT 9SM CLR 21/09 A3000 RMK SLP158 DENSITY ALT 3400FT
10:00 a.m.
V
68 °F 9 mi - 300° 300° 9 kt METAR CZVL 141600Z AUTO 30009KT 9SM CLR 20/11 A3000 RMK SLP158 DENSITY ALT 3300FT
9:00 a.m.
V
64 °F 9 mi - 290° 290° 7 kt METAR CZVL 141500Z AUTO 29007KT 9SM CLR 18/12 A3000 RMK SLP159 DENSITY ALT 3100FT
8:00 a.m.
V
57 °F 9 mi - 280° 280° 5 kt METAR CZVL 141400Z AUTO 28005KT 9SM CLR 14/12 A3000 RMK SLP159 DENSITY ALT 2700FT
7:00 a.m.
V
57 °F 9 mi - 300° 300° 5 kt METAR CZVL 141300Z AUTO 30005KT 9SM CLR 14/12 A2999 RMK SLP152 DENSITY ALT 2700FT
6:00 a.m.
V
57 °F 9 mi - 260° 260° 6 kt METAR CZVL 141200Z AUTO 26006KT 9SM CLR 14/11 A2997 RMK SLP145 DENSITY ALT 2700FT
Oudere gegevens

Met cookies volgen wij en derde partijen jouw internetgedrag binnen onze site. Als je verdergaat gaan we ervan uit dat je dit goedvindt. Meer info